createdAt,value
2018-01-18T00:00:12.953Z,998.80
2018-01-18T00:01:13.364Z,998.79
2018-01-18T00:02:13.781Z,998.65
2018-01-18T00:03:14.198Z,998.80
2018-01-18T00:04:14.613Z,998.93
2018-01-18T00:05:15.036Z,998.80
2018-01-18T00:06:15.454Z,998.82
2018-01-18T00:08:49.580Z,998.80
2018-01-18T00:11:23.110Z,998.83
2018-01-18T00:12:23.518Z,998.83
2018-01-18T00:14:18.083Z,998.94
2018-01-18T00:15:18.507Z,998.83
2018-01-18T00:17:13.108Z,998.84
2018-01-18T00:18:13.523Z,998.80
2018-01-18T00:20:08.091Z,998.82
2018-01-18T00:21:08.516Z,998.83
2018-01-18T00:23:03.115Z,998.86
2018-01-18T00:24:03.538Z,998.83
2018-01-18T00:25:58.125Z,998.87
2018-01-18T00:26:58.534Z,998.88
2018-01-18T00:28:53.107Z,998.87
2018-01-18T00:29:53.532Z,998.81
2018-01-18T00:31:48.120Z,998.83
2018-01-18T00:32:48.519Z,998.83
2018-01-18T00:33:48.952Z,998.88
2018-01-18T00:34:49.364Z,998.80
2018-01-18T00:35:49.774Z,998.86
2018-01-18T00:36:50.192Z,998.79
2018-01-18T00:37:50.614Z,998.85
2018-01-18T00:38:51.037Z,998.91
2018-01-18T00:39:51.456Z,998.94
2018-01-18T00:40:51.874Z,998.85
2018-01-18T00:41:52.306Z,998.90
2018-01-18T00:42:52.717Z,998.85
2018-01-18T00:43:53.138Z,998.91
2018-01-18T00:44:53.549Z,998.86
2018-01-18T00:45:53.969Z,998.91
2018-01-18T00:46:54.388Z,999.01
2018-01-18T00:47:54.819Z,999.00
2018-01-18T00:48:55.227Z,999.09
2018-01-18T00:49:55.653Z,998.99
2018-01-18T00:50:56.069Z,998.96
2018-01-18T00:51:56.486Z,999.00
2018-01-18T00:52:56.906Z,999.03
2018-01-18T00:53:57.327Z,998.99
2018-01-18T00:54:57.739Z,999.02
2018-01-18T00:55:58.166Z,999.04
2018-01-18T00:56:58.584Z,998.99
2018-01-18T00:57:59.028Z,999.03
2018-01-18T00:58:59.419Z,999.01
2018-01-18T00:59:59.836Z,999.03
2018-01-18T01:01:00.255Z,999.00
2018-01-18T01:02:00.679Z,998.95
2018-01-18T01:03:01.097Z,998.98
2018-01-18T01:04:01.550Z,998.91
2018-01-18T01:05:01.937Z,998.90
2018-01-18T01:07:38.821Z,998.93
2018-01-18T01:08:39.223Z,998.91
2018-01-18T01:10:33.796Z,998.98
2018-01-18T01:11:34.222Z,998.98
2018-01-18T01:13:28.808Z,998.95
2018-01-18T01:16:02.333Z,998.97
2018-01-18T01:17:02.755Z,998.93
2018-01-18T01:18:57.344Z,998.94
2018-01-18T01:19:57.752Z,999.00
2018-01-18T01:21:53.357Z,999.03
2018-01-18T01:22:53.771Z,998.99
2018-01-18T01:24:48.355Z,999.04
2018-01-18T01:25:48.774Z,999.05
2018-01-18T01:27:43.368Z,999.04
2018-01-18T01:28:43.774Z,999.00
2018-01-18T01:30:38.375Z,998.99
2018-01-18T01:31:38.789Z,999.04
2018-01-18T01:33:33.384Z,999.08
2018-01-18T01:34:33.792Z,999.06
2018-01-18T01:36:28.376Z,999.05
2018-01-18T01:37:28.793Z,999.04
2018-01-18T01:39:23.382Z,999.06
2018-01-18T01:40:23.798Z,999.13
2018-01-18T01:42:18.379Z,999.11
2018-01-18T01:43:18.797Z,999.11
2018-01-18T01:45:13.392Z,999.08
2018-01-18T01:46:13.798Z,999.05
2018-01-18T01:48:08.366Z,999.05
2018-01-18T01:49:08.790Z,999.04
2018-01-18T01:51:04.373Z,999.03
2018-01-18T01:52:04.781Z,999.02
2018-01-18T01:55:37.332Z,998.97
2018-01-18T01:56:37.730Z,998.99
2018-01-18T01:58:32.344Z,998.94
2018-01-18T01:59:32.737Z,998.96
2018-01-18T02:01:27.337Z,998.94
2018-01-18T02:02:27.731Z,998.95
2018-01-18T02:04:22.321Z,999.02
2018-01-18T02:05:22.736Z,998.95
2018-01-18T02:07:17.380Z,998.97
2018-01-18T02:08:17.741Z,998.96
2018-01-18T02:10:12.322Z,998.88
2018-01-18T02:11:12.744Z,998.88
2018-01-18T02:13:08.286Z,998.88
2018-01-18T02:14:08.716Z,998.85
2018-01-18T02:16:03.304Z,998.87
2018-01-18T02:17:03.724Z,998.84
2018-01-18T02:18:58.281Z,998.88
2018-01-18T02:19:58.710Z,998.84
2018-01-18T02:21:53.307Z,998.79
2018-01-18T02:22:53.709Z,998.85
2018-01-18T02:24:48.329Z,998.82
2018-01-18T02:25:48.714Z,998.89
2018-01-18T02:27:44.281Z,998.90
2018-01-18T02:28:44.707Z,998.89
2018-01-18T02:30:39.311Z,998.92
2018-01-18T02:31:39.695Z,998.92
2018-01-18T02:33:34.280Z,998.96
2018-01-18T02:34:34.701Z,998.95
2018-01-18T02:36:29.298Z,998.96
2018-01-18T02:37:29.715Z,999.02
2018-01-18T02:39:25.312Z,999.00
2018-01-18T02:40:25.698Z,999.06
2018-01-18T02:42:20.275Z,999.04
2018-01-18T02:43:20.680Z,999.01
2018-01-18T02:45:15.272Z,999.00
2018-01-18T02:46:15.672Z,999.01
2018-01-18T02:48:11.229Z,999.01
2018-01-18T02:49:11.662Z,999.02
2018-01-18T02:51:06.247Z,998.95
2018-01-18T02:52:06.656Z,998.99
2018-01-18T02:54:01.246Z,998.94
2018-01-18T02:55:01.656Z,998.90
2018-01-18T02:56:56.265Z,998.93
2018-01-18T02:57:56.656Z,998.95
2018-01-18T02:59:51.252Z,998.90
2018-01-18T03:00:51.660Z,998.87
2018-01-18T03:02:46.247Z,998.81
2018-01-18T03:03:46.654Z,998.80
2018-01-18T03:05:41.225Z,998.76
2018-01-18T03:06:41.643Z,998.76
2018-01-18T03:08:36.290Z,998.76
2018-01-18T03:09:36.696Z,998.71
2018-01-18T03:11:31.433Z,998.75
2018-01-18T03:12:31.839Z,998.73
2018-01-18T03:14:26.426Z,998.68
2018-01-18T03:15:26.840Z,998.67
2018-01-18T03:17:21.427Z,998.62
2018-01-18T03:18:21.861Z,998.51
2018-01-18T03:20:17.390Z,998.56
2018-01-18T03:21:17.816Z,998.53
2018-01-18T03:22:18.231Z,998.57
2018-01-18T03:23:18.666Z,998.57
2018-01-18T03:24:19.068Z,998.50
2018-01-18T03:25:19.503Z,998.51
2018-01-18T03:26:19.912Z,998.55
2018-01-18T03:27:20.335Z,998.43
2018-01-18T03:28:20.749Z,998.44
2018-01-18T03:29:21.165Z,998.48
2018-01-18T03:30:21.587Z,998.50
2018-01-18T03:31:22.011Z,998.49
2018-01-18T03:32:22.424Z,998.53
2018-01-18T03:33:22.842Z,998.41
2018-01-18T03:34:23.266Z,998.45
2018-01-18T03:35:23.692Z,998.51
2018-01-18T03:36:24.109Z,998.51
2018-01-18T03:37:24.526Z,998.46
2018-01-18T03:38:24.944Z,998.44
2018-01-18T03:39:25.364Z,998.40
2018-01-18T03:40:25.782Z,998.38
2018-01-18T03:41:26.204Z,998.37
2018-01-18T03:42:26.622Z,998.36
2018-01-18T03:43:27.041Z,998.36
2018-01-18T03:44:27.480Z,998.41
2018-01-18T03:45:27.884Z,998.40
2018-01-18T03:46:28.303Z,998.38
2018-01-18T03:47:28.721Z,998.41
2018-01-18T03:48:29.142Z,998.31
2018-01-18T03:49:29.569Z,998.35
2018-01-18T03:50:29.979Z,998.33
2018-01-18T03:51:30.400Z,998.33
2018-01-18T03:52:30.819Z,998.28
2018-01-18T03:53:31.264Z,998.26
2018-01-18T03:54:31.668Z,998.28
2018-01-18T03:55:32.084Z,998.27
2018-01-18T03:56:32.499Z,998.28
2018-01-18T03:57:32.922Z,998.22
2018-01-18T03:58:33.343Z,998.19
2018-01-18T03:59:33.780Z,998.16
2018-01-18T04:00:34.219Z,998.14
2018-01-18T04:03:36.432Z,998.23
2018-01-18T04:04:36.833Z,998.18
2018-01-18T04:06:32.386Z,998.20
2018-01-18T04:07:32.813Z,998.12
2018-01-18T04:09:27.403Z,998.04
2018-01-18T04:10:27.814Z,998.00
2018-01-18T04:13:56.227Z,998.06
2018-01-18T04:14:56.635Z,998.07
2018-01-18T04:16:51.224Z,998.04
2018-01-18T04:17:51.635Z,998.03
2018-01-18T04:19:46.224Z,998.07
2018-01-18T04:20:46.696Z,998.01
2018-01-18T04:21:47.053Z,998.00
2018-01-18T04:22:47.474Z,998.00
2018-01-18T04:23:47.892Z,997.95
2018-01-18T04:24:48.316Z,998.00
2018-01-18T04:25:48.736Z,997.90
2018-01-18T04:26:49.161Z,997.96
2018-01-18T04:27:49.585Z,997.95
2018-01-18T04:28:49.998Z,997.85
2018-01-18T04:29:50.415Z,997.84
2018-01-18T04:30:50.836Z,997.81
2018-01-18T04:31:51.268Z,997.80
2018-01-18T04:32:51.674Z,997.79
2018-01-18T04:33:52.099Z,997.81
2018-01-18T04:34:52.522Z,997.81
2018-01-18T04:35:52.933Z,997.75
2018-01-18T04:36:53.370Z,997.79
2018-01-18T04:37:53.783Z,997.83
2018-01-18T04:38:54.201Z,997.79
2018-01-18T04:39:54.616Z,997.83
2018-01-18T04:40:55.044Z,997.80
2018-01-18T04:41:55.469Z,997.86
2018-01-18T04:42:55.891Z,997.81
2018-01-18T04:43:56.317Z,997.75
2018-01-18T04:44:56.716Z,997.79
2018-01-18T04:45:57.140Z,997.80
2018-01-18T04:46:57.559Z,997.80
2018-01-18T04:47:57.976Z,997.81
2018-01-18T04:48:58.406Z,997.80
2018-01-18T04:49:58.818Z,997.85
2018-01-18T04:50:59.242Z,997.90
2018-01-18T04:51:59.683Z,997.89
2018-01-18T04:53:00.079Z,997.89
2018-01-18T04:54:00.495Z,997.85
2018-01-18T04:55:00.915Z,997.88
2018-01-18T04:56:01.338Z,997.92
2018-01-18T04:57:01.756Z,997.82
2018-01-18T04:58:02.187Z,997.84
2018-01-18T04:59:02.596Z,997.78
2018-01-18T05:00:03.019Z,997.82
2018-01-18T05:01:03.437Z,997.80
2018-01-18T05:02:03.853Z,997.83
2018-01-18T05:03:04.281Z,997.80
2018-01-18T05:04:04.698Z,997.77
2018-01-18T05:05:05.114Z,997.77
2018-01-18T05:06:05.532Z,997.71
2018-01-18T05:07:05.953Z,997.77
2018-01-18T05:08:06.379Z,997.71
2018-01-18T05:09:06.798Z,997.63
2018-01-18T05:10:07.223Z,997.60
2018-01-18T05:11:07.655Z,997.60
2018-01-18T05:12:08.050Z,997.60
2018-01-18T05:13:08.475Z,997.54
2018-01-18T05:14:08.888Z,997.52
2018-01-18T05:15:09.314Z,997.47
2018-01-18T05:16:09.736Z,997.54
2018-01-18T05:17:10.158Z,997.50
2018-01-18T05:18:10.576Z,997.52
2018-01-18T05:19:10.999Z,997.50
2018-01-18T05:21:45.770Z,997.51
2018-01-18T05:24:20.293Z,997.47
2018-01-18T05:26:53.831Z,997.51
2018-01-18T05:27:54.235Z,997.53
2018-01-18T05:29:48.805Z,997.57
2018-01-18T05:30:49.233Z,997.52
2018-01-18T05:32:43.851Z,997.49
2018-01-18T05:33:44.279Z,997.42
2018-01-18T05:35:39.814Z,997.44
2018-01-18T05:36:40.237Z,997.40
2018-01-18T05:38:35.820Z,997.32
2018-01-18T05:39:36.226Z,997.30
2018-01-18T05:41:30.885Z,997.18
2018-01-18T05:42:31.223Z,997.16
2018-01-18T05:44:26.779Z,997.15
2018-01-18T05:45:27.203Z,997.11
2018-01-18T05:47:21.797Z,997.06
2018-01-18T05:48:22.216Z,996.98
2018-01-18T05:50:17.778Z,996.90
2018-01-18T05:51:18.194Z,996.89
2018-01-18T05:53:13.025Z,996.86
2018-01-18T05:54:13.206Z,996.78
2018-01-18T05:56:08.281Z,996.78
2018-01-18T05:57:08.710Z,996.76
2018-01-18T05:59:03.289Z,996.78
2018-01-18T06:00:03.697Z,996.67
2018-01-18T06:01:58.286Z,996.69
2018-01-18T06:02:58.701Z,996.63
2018-01-18T06:04:53.268Z,996.64
2018-01-18T06:05:53.694Z,996.57
2018-01-18T06:07:49.279Z,996.56
2018-01-18T06:08:49.766Z,996.52
2018-01-18T06:10:44.246Z,996.49
2018-01-18T06:11:44.669Z,996.48
2018-01-18T06:13:39.265Z,996.45
2018-01-18T06:14:39.671Z,996.41
2018-01-18T06:15:40.083Z,996.35
2018-01-18T06:16:40.502Z,996.35
2018-01-18T06:17:40.925Z,996.32
2018-01-18T06:18:41.343Z,996.25
2018-01-18T06:19:41.765Z,996.27
2018-01-18T06:20:42.184Z,996.21
2018-01-18T06:21:42.599Z,996.18
2018-01-18T06:22:43.018Z,996.23
2018-01-18T06:23:43.444Z,996.20
2018-01-18T06:24:43.861Z,996.14
2018-01-18T06:25:44.278Z,996.10
2018-01-18T06:26:44.703Z,996.16
2018-01-18T06:27:45.125Z,996.09
2018-01-18T06:28:45.543Z,996.10
2018-01-18T06:29:45.961Z,996.12
2018-01-18T06:30:46.376Z,996.12
2018-01-18T06:31:46.797Z,996.07
2018-01-18T06:36:33.326Z,996.11
2018-01-18T06:37:33.729Z,996.08
2018-01-18T06:39:32.271Z,995.98
2018-01-18T06:42:54.443Z,996.04
2018-01-18T06:45:35.755Z,995.93
2018-01-18T06:48:09.318Z,995.86
2018-01-18T06:49:09.750Z,995.83
2018-01-18T06:51:05.310Z,995.79
2018-01-18T06:52:05.715Z,995.78
2018-01-18T06:54:00.309Z,995.72
2018-01-18T06:55:00.793Z,995.71
2018-01-18T06:57:49.061Z,995.65
2018-01-18T06:58:49.480Z,995.68
2018-01-18T07:00:44.080Z,995.58
2018-01-18T07:01:44.482Z,995.56
2018-01-18T07:03:39.059Z,995.50
2018-01-18T07:04:39.470Z,995.47
2018-01-18T07:06:35.059Z,995.42
2018-01-18T07:07:35.470Z,995.37
2018-01-18T07:09:30.036Z,995.29
2018-01-18T07:10:30.466Z,995.27
2018-01-18T07:12:25.057Z,995.21
2018-01-18T07:13:25.452Z,995.19
2018-01-18T07:15:20.037Z,995.13
2018-01-18T07:17:53.561Z,995.05
2018-01-18T07:18:53.985Z,995.01
2018-01-18T07:20:48.573Z,994.94
2018-01-18T07:21:48.986Z,994.85
2018-01-18T07:23:43.557Z,994.89
2018-01-18T07:24:43.992Z,994.82
2018-01-18T07:26:39.570Z,994.76
2018-01-18T07:27:39.962Z,994.78
2018-01-18T07:28:40.386Z,994.73
2018-01-18T07:29:40.801Z,994.70
2018-01-18T07:30:41.223Z,994.65
2018-01-18T07:31:41.641Z,994.66
2018-01-18T07:32:42.078Z,994.64
2018-01-18T07:33:42.480Z,994.60
2018-01-18T07:34:42.896Z,994.59
2018-01-18T07:35:43.328Z,994.56
2018-01-18T07:36:43.737Z,994.55
2018-01-18T07:37:44.155Z,994.51
2018-01-18T07:38:44.573Z,994.48
2018-01-18T07:39:44.997Z,994.43
2018-01-18T07:40:45.411Z,994.37
2018-01-18T07:41:45.831Z,994.34
2018-01-18T07:42:46.256Z,994.30
2018-01-18T07:43:46.672Z,994.28
2018-01-18T07:44:47.090Z,994.19
2018-01-18T07:45:47.511Z,994.22
2018-01-18T07:46:47.958Z,994.14
2018-01-18T07:47:48.351Z,994.06
2018-01-18T07:48:48.770Z,994.02
2018-01-18T07:49:49.192Z,993.97
2018-01-18T07:50:49.615Z,993.94
2018-01-18T07:51:50.036Z,993.91
2018-01-18T07:52:50.456Z,993.84
2018-01-18T07:53:50.867Z,993.81
2018-01-18T07:54:51.295Z,993.78
2018-01-18T07:55:51.705Z,993.71
2018-01-18T07:56:52.123Z,993.64
2018-01-18T07:57:52.543Z,993.56
2018-01-18T07:58:52.961Z,993.49
2018-01-18T07:59:53.383Z,993.49
2018-01-18T08:00:53.806Z,993.42
2018-01-18T08:01:54.222Z,993.36
2018-01-18T08:02:54.651Z,993.35
2018-01-18T08:03:55.061Z,993.32
2018-01-18T08:04:55.482Z,993.36
2018-01-18T08:05:55.902Z,993.28
2018-01-18T08:06:56.323Z,993.30
2018-01-18T08:07:56.738Z,993.24
2018-01-18T08:08:57.161Z,993.19
2018-01-18T08:09:57.577Z,993.09
2018-01-18T08:10:58.011Z,993.10
2018-01-18T08:11:58.421Z,993.10
2018-01-18T08:12:58.835Z,992.98
2018-01-18T08:13:59.293Z,993.00
2018-01-18T08:14:59.675Z,992.91
2018-01-18T08:16:00.124Z,992.92
2018-01-18T08:17:00.514Z,992.90
2018-01-18T08:18:00.934Z,992.80
2018-01-18T08:19:01.364Z,992.84
2018-01-18T08:20:01.771Z,992.80
2018-01-18T08:21:02.191Z,992.72
2018-01-18T08:22:02.627Z,992.71
2018-01-18T08:23:03.043Z,992.70
2018-01-18T08:24:03.472Z,992.71
2018-01-18T08:25:03.885Z,992.66
2018-01-18T08:26:04.361Z,992.57
2018-01-18T08:27:04.705Z,992.51
2018-01-18T08:28:59.301Z,992.39
2018-01-18T08:29:59.713Z,992.44
2018-01-18T08:31:55.300Z,992.38
2018-01-18T08:32:55.766Z,992.32
2018-01-18T08:34:50.295Z,992.33
2018-01-18T08:35:50.743Z,992.29
2018-01-18T08:37:45.279Z,992.21
2018-01-18T08:40:18.833Z,992.11
2018-01-18T08:42:53.337Z,991.98
2018-01-18T08:43:53.772Z,991.92
2018-01-18T08:45:49.335Z,991.81
2018-01-18T08:46:49.776Z,991.75
2018-01-18T08:48:44.333Z,991.75
2018-01-18T08:49:44.754Z,991.67
2018-01-18T08:51:39.351Z,991.62
2018-01-18T08:52:39.772Z,991.60
2018-01-18T08:54:55.496Z,991.57
2018-01-18T08:55:55.902Z,991.50
2018-01-18T08:57:50.486Z,991.40
2018-01-18T08:58:50.912Z,991.34
2018-01-18T08:59:51.321Z,991.29
2018-01-18T09:00:51.739Z,991.29
2018-01-18T09:01:52.161Z,991.23
2018-01-18T09:02:52.576Z,991.15
2018-01-18T09:03:53.001Z,991.10
2018-01-18T09:04:53.419Z,991.15
2018-01-18T09:05:53.837Z,991.09
2018-01-18T09:06:54.263Z,990.98
2018-01-18T09:07:54.693Z,991.05
2018-01-18T09:08:55.102Z,990.95
2018-01-18T09:09:55.520Z,990.98
2018-01-18T09:10:55.941Z,990.94
2018-01-18T09:11:56.357Z,990.88
2018-01-18T09:14:30.891Z,990.82
2018-01-18T09:17:04.436Z,990.62
2018-01-18T09:18:04.856Z,990.57
2018-01-18T09:19:59.419Z,990.50
2018-01-18T09:20:59.838Z,990.45
2018-01-18T09:22:54.462Z,990.38
2018-01-18T09:23:54.839Z,990.27
2018-01-18T09:25:49.403Z,990.17
2018-01-18T09:26:49.826Z,990.09
2018-01-18T09:28:45.460Z,989.99
2018-01-18T09:29:45.806Z,989.98
2018-01-18T09:31:40.399Z,989.82
2018-01-18T09:32:40.805Z,989.77
2018-01-18T09:34:35.389Z,989.60
2018-01-18T09:35:35.796Z,989.58
2018-01-18T09:37:30.379Z,989.30
2018-01-18T09:38:30.790Z,989.24
2018-01-18T09:40:40.015Z,989.10
2018-01-18T09:41:40.440Z,989.12
2018-01-18T09:43:35.029Z,989.09
2018-01-18T09:44:35.441Z,988.97
2018-01-18T09:46:30.020Z,988.93
2018-01-18T09:47:30.442Z,988.87
2018-01-18T09:49:25.032Z,988.79
2018-01-18T09:50:25.429Z,988.72
2018-01-18T09:52:20.037Z,988.73
2018-01-18T09:53:20.444Z,988.75
2018-01-18T09:55:15.012Z,988.59
2018-01-18T09:56:15.437Z,988.55
2018-01-18T09:58:10.035Z,988.55
2018-01-18T09:59:10.441Z,988.51
2018-01-18T10:01:05.015Z,988.38
2018-01-18T10:02:05.436Z,988.29
2018-01-18T10:04:00.041Z,988.20
2018-01-18T10:05:00.441Z,988.09
2018-01-18T10:06:55.022Z,988.00
2018-01-18T10:07:55.439Z,987.96
2018-01-18T10:09:50.033Z,987.86
2018-01-18T10:10:50.443Z,987.78
2018-01-18T10:12:46.014Z,987.74
2018-01-18T10:13:46.428Z,987.60
2018-01-18T10:15:42.006Z,987.55
2018-01-18T10:16:42.397Z,987.45
2018-01-18T10:18:37.023Z,987.35
2018-01-18T10:19:37.407Z,987.23
2018-01-18T10:21:31.982Z,987.02
2018-01-18T10:22:32.402Z,986.94
2018-01-18T10:24:26.991Z,986.89
2018-01-18T10:25:27.403Z,986.83
2018-01-18T10:27:21.970Z,986.68
2018-01-18T10:28:22.425Z,986.63
2018-01-18T10:30:16.986Z,986.59
2018-01-18T10:31:17.386Z,986.49
2018-01-18T10:33:12.953Z,986.28
2018-01-18T10:34:13.376Z,986.19
2018-01-18T10:36:07.963Z,986.15
2018-01-18T10:37:08.372Z,986.13
2018-01-18T10:39:02.960Z,986.05
2018-01-18T10:40:03.365Z,985.96
2018-01-18T10:41:57.939Z,985.83
2018-01-18T10:42:58.365Z,985.72
2018-01-18T10:44:52.953Z,985.75
2018-01-18T10:45:53.356Z,985.75
2018-01-18T10:47:47.929Z,985.59
2018-01-18T10:48:48.349Z,985.47
2018-01-18T10:50:43.951Z,985.35
2018-01-18T10:51:44.344Z,985.35
2018-01-18T10:53:38.908Z,985.16
2018-01-18T10:54:39.327Z,985.03
2018-01-18T10:56:33.926Z,984.90
2018-01-18T10:57:34.333Z,984.83
2018-01-18T10:58:34.746Z,984.77
2018-01-18T10:59:35.162Z,984.64
2018-01-18T11:00:35.580Z,984.57
2018-01-18T11:01:35.995Z,984.42
2018-01-18T11:02:36.423Z,984.40
2018-01-18T11:03:36.841Z,984.23
2018-01-18T11:04:37.249Z,984.16
2018-01-18T11:05:37.668Z,984.15
2018-01-18T11:06:38.095Z,984.14
2018-01-18T11:07:38.503Z,984.17
2018-01-18T11:08:38.929Z,984.11
2018-01-18T11:09:39.340Z,984.13
2018-01-18T11:10:39.779Z,984.10
2018-01-18T11:11:40.306Z,984.02
2018-01-18T11:12:40.601Z,983.97
2018-01-18T11:13:41.009Z,983.95
2018-01-18T11:14:41.425Z,983.89
2018-01-18T11:15:41.849Z,983.89
2018-01-18T11:16:42.258Z,983.84
2018-01-18T11:17:42.674Z,983.79
2018-01-18T11:18:43.091Z,983.81
2018-01-18T11:19:43.511Z,983.58
2018-01-18T11:20:43.929Z,983.55
2018-01-18T11:21:44.347Z,983.51
2018-01-18T11:22:44.769Z,983.47
2018-01-18T11:23:45.179Z,983.34
2018-01-18T11:24:45.604Z,983.38
2018-01-18T11:25:46.017Z,983.38
2018-01-18T11:26:46.434Z,983.27
2018-01-18T11:27:46.854Z,983.22
2018-01-18T11:28:47.289Z,983.08
2018-01-18T11:29:47.688Z,982.99
2018-01-18T11:30:48.105Z,982.96
2018-01-18T11:31:48.557Z,982.88
2018-01-18T11:32:48.934Z,982.88
2018-01-18T11:33:49.354Z,982.82
2018-01-18T11:34:49.772Z,982.77
2018-01-18T11:35:50.241Z,982.68
2018-01-18T11:36:50.612Z,982.62
2018-01-18T11:37:51.027Z,982.61
2018-01-18T11:38:51.470Z,982.49
2018-01-18T11:39:51.863Z,982.51
2018-01-18T11:40:52.311Z,982.58
2018-01-18T11:41:52.682Z,982.55
2018-01-18T11:42:53.107Z,982.45
2018-01-18T11:43:53.530Z,982.45
2018-01-18T11:44:53.944Z,982.40
2018-01-18T11:45:54.359Z,982.28
2018-01-18T11:46:54.785Z,982.29
2018-01-18T11:47:55.202Z,982.26
2018-01-18T11:48:55.619Z,982.14
2018-01-18T11:49:56.036Z,982.09
2018-01-18T11:50:56.452Z,981.99
2018-01-18T11:51:56.882Z,981.96
2018-01-18T11:52:57.282Z,981.92
2018-01-18T11:53:57.700Z,981.96
2018-01-18T11:54:58.119Z,981.87
2018-01-18T11:55:58.547Z,981.82
2018-01-18T11:56:58.957Z,981.79
2018-01-18T11:57:59.371Z,981.74
2018-01-18T11:58:59.785Z,981.67
2018-01-18T12:00:00.210Z,981.56
2018-01-18T12:01:00.626Z,981.57
2018-01-18T12:02:01.056Z,981.56
2018-01-18T12:03:01.460Z,981.40
2018-01-18T12:04:01.880Z,981.47
2018-01-18T12:05:02.293Z,981.30
2018-01-18T12:06:02.713Z,981.22
2018-01-18T12:07:03.129Z,981.27
2018-01-18T12:08:03.573Z,981.30
2018-01-18T12:09:03.978Z,981.19
2018-01-18T12:10:04.391Z,981.14
2018-01-18T12:11:04.797Z,981.21
2018-01-18T12:12:05.219Z,981.07
2018-01-18T12:13:05.637Z,980.93
2018-01-18T12:14:06.053Z,980.99
2018-01-18T12:15:06.470Z,980.99
2018-01-18T12:16:06.886Z,980.96
2018-01-18T12:17:07.320Z,980.95
2018-01-18T12:18:07.728Z,980.88
2018-01-18T12:19:08.140Z,980.88
2018-01-18T12:20:08.562Z,980.78
2018-01-18T12:21:08.978Z,980.81
2018-01-18T12:22:09.395Z,980.67
2018-01-18T12:23:09.817Z,980.68
2018-01-18T12:24:10.230Z,980.68
2018-01-18T12:25:10.649Z,980.64
2018-01-18T12:26:11.067Z,980.67
2018-01-18T12:27:11.487Z,980.58
2018-01-18T12:28:11.906Z,980.48
2018-01-18T12:29:12.322Z,980.44
2018-01-18T12:30:12.792Z,980.42
2018-01-18T12:31:13.159Z,980.39
2018-01-18T12:32:13.582Z,980.29
2018-01-18T12:33:13.997Z,980.17
2018-01-18T12:34:14.433Z,980.18
2018-01-18T12:35:14.834Z,980.12
2018-01-18T12:36:15.260Z,980.10
2018-01-18T12:37:15.680Z,980.15
2018-01-18T12:38:16.090Z,980.15
2018-01-18T12:39:16.511Z,980.12
2018-01-18T12:40:16.932Z,980.07
2018-01-18T12:41:17.362Z,979.96
2018-01-18T12:42:17.760Z,979.90
2018-01-18T12:43:18.184Z,979.79
2018-01-18T12:44:18.605Z,979.71
2018-01-18T12:45:19.019Z,979.70
2018-01-18T12:46:19.444Z,979.73
2018-01-18T12:47:19.859Z,979.58
2018-01-18T12:48:20.278Z,979.45
2018-01-18T12:49:20.697Z,979.52
2018-01-18T12:50:21.111Z,979.46
2018-01-18T12:51:21.530Z,979.41
2018-01-18T12:52:21.956Z,979.34
2018-01-18T12:53:22.375Z,979.29
2018-01-18T12:54:22.789Z,979.24
2018-01-18T12:55:23.204Z,979.28
2018-01-18T12:56:23.622Z,979.28
2018-01-18T12:57:24.042Z,979.19
2018-01-18T12:58:24.458Z,979.15
2018-01-18T12:59:24.881Z,979.14
2018-01-18T13:00:25.297Z,979.03
2018-01-18T13:01:25.746Z,979.06
2018-01-18T13:02:26.138Z,979.05
2018-01-18T13:03:26.561Z,978.95
2018-01-18T13:04:26.980Z,978.98
2018-01-18T13:05:27.400Z,978.91
2018-01-18T13:06:27.821Z,978.95
2018-01-18T13:07:28.234Z,978.91
2018-01-18T13:08:28.656Z,978.85
2018-01-18T13:09:29.067Z,978.82
2018-01-18T13:10:29.485Z,978.76
2018-01-18T13:11:29.906Z,978.76
2018-01-18T13:12:30.327Z,978.75
2018-01-18T13:13:30.743Z,978.71
2018-01-18T13:14:31.164Z,978.63
2018-01-18T13:15:31.668Z,978.58
2018-01-18T13:16:32.012Z,978.54
2018-01-18T13:17:32.428Z,978.53
2018-01-18T13:18:32.866Z,978.49
2018-01-18T13:19:33.269Z,978.51
2018-01-18T13:20:33.697Z,978.52
2018-01-18T13:21:34.102Z,978.53
2018-01-18T13:22:34.517Z,978.49
2018-01-18T13:23:34.938Z,978.52
2018-01-18T13:24:35.357Z,978.49
2018-01-18T13:25:35.781Z,978.52
2018-01-18T13:26:36.202Z,978.45
2018-01-18T13:27:36.615Z,978.52
2018-01-18T13:28:37.062Z,978.44
2018-01-18T13:29:37.459Z,978.36
2018-01-18T13:30:37.874Z,978.31
2018-01-18T13:31:38.293Z,978.22
2018-01-18T13:32:38.721Z,978.19
2018-01-18T13:33:39.136Z,978.21
2018-01-18T13:34:39.553Z,978.20
2018-01-18T13:35:40.219Z,978.20
2018-01-18T13:36:40.386Z,978.05
2018-01-18T13:37:40.815Z,978.00
2018-01-18T13:38:41.314Z,978.01
2018-01-18T13:39:41.658Z,978.04
2018-01-18T13:40:42.069Z,977.96
2018-01-18T13:41:42.493Z,977.89
2018-01-18T13:42:42.912Z,977.85
2018-01-18T13:43:43.329Z,977.89
2018-01-18T13:44:43.755Z,977.83
2018-01-18T13:45:44.171Z,977.75
2018-01-18T13:46:44.589Z,977.63
2018-01-18T13:47:45.019Z,977.65
2018-01-18T13:48:45.445Z,977.62
2018-01-18T13:49:45.851Z,977.60
2018-01-18T13:50:46.271Z,977.59
2018-01-18T13:51:46.692Z,977.58
2018-01-18T13:52:47.113Z,977.50
2018-01-18T13:53:47.530Z,977.41
2018-01-18T13:54:47.957Z,977.47
2018-01-18T13:55:48.375Z,977.48
2018-01-18T13:56:48.792Z,977.43
2018-01-18T13:57:49.216Z,977.43
2018-01-18T13:58:49.631Z,977.37
2018-01-18T13:59:50.057Z,977.33
2018-01-18T14:00:50.471Z,977.32
2018-01-18T14:01:50.893Z,977.35
2018-01-18T14:02:51.334Z,977.32
2018-01-18T14:03:51.738Z,977.20
2018-01-18T14:04:52.156Z,977.27
2018-01-18T14:05:52.574Z,977.24
2018-01-18T14:06:52.997Z,977.22
2018-01-18T14:07:53.417Z,977.37
2018-01-18T14:08:53.837Z,977.26
2018-01-18T14:09:54.260Z,977.34
2018-01-18T14:10:54.688Z,977.39
2018-01-18T14:11:55.111Z,977.48
2018-01-18T14:12:55.521Z,977.51
2018-01-18T14:13:55.942Z,977.55
2018-01-18T14:14:56.361Z,977.41
2018-01-18T14:15:56.784Z,977.38
2018-01-18T14:16:57.208Z,977.36
2018-01-18T14:17:57.629Z,977.29
2018-01-18T14:18:58.049Z,977.29
2018-01-18T14:19:58.530Z,977.28
2018-01-18T14:20:58.894Z,977.27
2018-01-18T14:21:59.312Z,977.35
2018-01-18T14:22:59.730Z,977.31
2018-01-18T14:24:00.231Z,977.33
2018-01-18T14:25:00.576Z,977.35
2018-01-18T14:26:00.999Z,977.16
2018-01-18T14:27:01.420Z,977.33
2018-01-18T14:28:01.843Z,977.26
2018-01-18T14:29:02.260Z,977.32
2018-01-18T14:30:02.681Z,977.33
2018-01-18T14:31:03.103Z,977.31
2018-01-18T14:32:03.593Z,977.29
2018-01-18T14:33:03.990Z,977.29
2018-01-18T14:34:04.372Z,977.29
2018-01-18T14:35:04.789Z,977.43
2018-01-18T14:36:05.210Z,977.35
2018-01-18T14:37:05.631Z,977.32
2018-01-18T14:38:06.054Z,977.22
2018-01-18T14:39:06.469Z,977.36
2018-01-18T14:40:06.892Z,977.35
2018-01-18T14:41:07.320Z,977.46
2018-01-18T14:42:07.741Z,977.41
2018-01-18T14:43:08.183Z,977.45
2018-01-18T14:44:08.580Z,977.35
2018-01-18T14:45:08.997Z,977.76
2018-01-18T14:46:09.420Z,977.57
2018-01-18T14:47:09.846Z,977.52
2018-01-18T14:48:10.262Z,977.58
2018-01-18T14:49:10.682Z,977.58
2018-01-18T14:50:11.103Z,977.61
2018-01-18T14:51:11.525Z,977.65
2018-01-18T14:52:11.947Z,977.79
2018-01-18T14:53:12.369Z,977.72
2018-01-18T14:54:12.799Z,977.79
2018-01-18T14:55:13.210Z,977.73
2018-01-18T14:56:13.641Z,977.79
2018-01-18T14:57:14.055Z,977.77
2018-01-18T14:58:14.473Z,977.81
2018-01-18T14:59:14.894Z,977.73
2018-01-18T15:00:15.323Z,977.73
2018-01-18T15:01:15.737Z,977.83
2018-01-18T15:02:16.161Z,977.90
2018-01-18T15:03:16.578Z,977.81
2018-01-18T15:04:16.999Z,977.94